createdAt,value
2022-12-03T00:05:22.568Z,3.70
2022-12-03T00:15:22.554Z,3.74
2022-12-03T00:25:22.539Z,3.78
2022-12-03T00:35:22.569Z,3.81
2022-12-03T00:45:22.599Z,3.83
2022-12-03T00:55:22.647Z,3.85
2022-12-03T01:05:25.662Z,3.87
2022-12-03T01:15:25.637Z,3.89
2022-12-03T01:25:25.654Z,3.92
2022-12-03T01:35:25.647Z,3.97
2022-12-03T01:45:25.651Z,4.01
2022-12-03T01:55:25.715Z,4.04
2022-12-03T02:05:26.529Z,4.06
2022-12-03T02:15:26.688Z,4.07
2022-12-03T02:25:26.742Z,4.07
2022-12-03T02:35:26.859Z,4.07
2022-12-03T02:45:26.758Z,4.07
2022-12-03T02:55:30.657Z,4.07
2022-12-03T03:05:28.807Z,4.05
2022-12-03T03:15:28.775Z,4.01
2022-12-03T03:25:28.741Z,3.96
2022-12-03T03:35:28.909Z,3.91
2022-12-03T03:45:29.752Z,3.87
2022-12-03T03:55:29.867Z,3.82
2022-12-03T04:05:29.901Z,3.79
2022-12-03T04:15:29.832Z,3.76
2022-12-03T04:25:48.118Z,3.71
2022-12-03T04:35:47.941Z,3.66
2022-12-03T04:45:48.267Z,3.64
2022-12-03T04:55:48.919Z,3.61
2022-12-03T05:05:48.979Z,3.56
2022-12-03T05:15:48.895Z,3.53
2022-12-03T05:25:48.986Z,3.53
2022-12-03T05:35:49.321Z,3.54
2022-12-03T05:45:50.109Z,3.55
2022-12-03T05:55:49.939Z,3.56
2022-12-03T06:05:49.987Z,3.56
2022-12-03T06:15:50.020Z,3.57
2022-12-03T06:25:52.947Z,3.53
2022-12-03T06:35:52.980Z,3.42
2022-12-03T06:45:52.969Z,3.22
2022-12-03T06:55:53.072Z,2.97
2022-12-03T07:05:53.042Z,2.73
2022-12-03T07:15:53.227Z,2.57
2022-12-03T07:25:53.038Z,2.47
2022-12-03T07:35:53.190Z,2.40
2022-12-03T07:45:53.042Z,2.37
2022-12-03T07:55:53.095Z,2.38
2022-12-03T08:05:53.073Z,2.43
2022-12-03T08:15:53.296Z,2.54
2022-12-03T08:25:53.246Z,2.70
2022-12-03T08:35:53.147Z,2.87
2022-12-03T08:45:53.250Z,3.14
2022-12-03T08:55:56.133Z,3.53
2022-12-03T09:05:56.211Z,3.88
2022-12-03T09:15:56.176Z,3.96
2022-12-03T09:25:56.173Z,4.05
2022-12-03T09:35:58.103Z,4.38
2022-12-03T09:45:58.304Z,4.84
2022-12-03T09:55:58.236Z,5.22
2022-12-03T10:05:58.248Z,5.54
2022-12-03T10:15:58.295Z,5.87
2022-12-03T10:25:58.285Z,6.12
2022-12-03T10:35:58.366Z,6.32
2022-12-03T10:46:03.503Z,6.52
2022-12-03T10:56:01.335Z,6.66
2022-12-03T11:06:01.354Z,6.68
2022-12-03T11:16:01.517Z,6.59
2022-12-03T11:26:01.268Z,6.46
2022-12-03T11:36:01.363Z,6.29
2022-12-03T11:46:04.377Z,6.13
2022-12-03T11:56:08.016Z,5.99
2022-12-03T12:06:08.410Z,5.96
2022-12-03T12:16:09.011Z,6.02
2022-12-03T12:26:09.366Z,6.07
2022-12-03T12:36:09.363Z,6.08
2022-12-03T12:46:45.406Z,6.12
2022-12-03T12:56:14.259Z,6.16
2022-12-03T13:06:14.409Z,6.17
2022-12-03T13:16:15.026Z,6.18
2022-12-03T13:26:30.361Z,6.16
2022-12-03T13:36:17.549Z,6.02
2022-12-03T13:46:18.917Z,5.79
2022-12-03T13:56:19.518Z,5.61
2022-12-03T14:06:19.473Z,5.51
2022-12-03T14:16:19.622Z,5.40
2022-12-03T14:26:19.512Z,5.31
2022-12-03T14:36:19.495Z,5.24
2022-12-03T14:46:19.625Z,5.16
2022-12-03T14:56:19.521Z,5.07
2022-12-03T15:06:19.978Z,4.94
2022-12-03T15:16:20.856Z,4.79
2022-12-03T15:26:20.559Z,4.65
2022-12-03T15:36:20.559Z,4.54
2022-12-03T15:46:20.786Z,4.45
2022-12-03T15:56:20.601Z,4.40
2022-12-03T16:06:20.601Z,4.37
2022-12-03T16:16:20.755Z,4.33
2022-12-03T16:26:22.043Z,4.28
2022-12-03T16:36:21.668Z,4.23
2022-12-03T16:46:25.792Z,4.20
2022-12-03T16:56:26.697Z,4.18
2022-12-03T17:06:26.725Z,4.17
2022-12-03T17:16:27.380Z,4.15
2022-12-03T17:26:27.753Z,4.12
2022-12-03T17:36:27.772Z,4.08
2022-12-03T17:46:27.777Z,4.06
2022-12-03T17:56:27.748Z,4.04
2022-12-03T18:06:27.754Z,4.03
2022-12-03T18:16:27.975Z,4.01
2022-12-03T18:26:27.774Z,3.99
2022-12-03T18:36:29.413Z,3.98
2022-12-03T18:46:53.586Z,3.96
2022-12-03T18:56:31.820Z,3.96
2022-12-03T19:06:31.818Z,3.97
2022-12-03T19:16:31.984Z,3.99
2022-12-03T19:26:31.847Z,4.00
2022-12-03T19:36:31.832Z,3.98
2022-12-03T19:46:32.275Z,3.96
2022-12-03T19:56:32.847Z,3.94
2022-12-03T20:06:32.914Z,3.91
2022-12-03T20:16:32.995Z,3.88
2022-12-03T20:26:32.914Z,3.86
2022-12-03T20:36:33.232Z,3.87
2022-12-03T20:46:33.102Z,3.89
2022-12-03T20:56:32.935Z,3.91
2022-12-03T21:06:33.755Z,3.92
2022-12-03T21:26:38.001Z,3.92
2022-12-03T21:36:38.077Z,3.92
2022-12-03T21:47:11.700Z,3.93
2022-12-03T21:56:40.017Z,3.94
2022-12-03T22:06:40.034Z,3.95
2022-12-03T22:16:43.106Z,3.96
2022-12-03T22:26:43.047Z,3.97
2022-12-03T22:36:43.066Z,3.99
2022-12-03T22:46:43.115Z,3.98
2022-12-03T22:56:43.116Z,3.99
2022-12-03T23:06:43.427Z,3.99
2022-12-03T23:16:43.110Z,3.97
2022-12-03T23:26:43.116Z,3.94
2022-12-03T23:36:43.107Z,3.92
2022-12-03T23:46:43.213Z,3.91
2022-12-03T23:56:43.159Z,3.92
